sensor_id;sensor_type;location;lat;lon;timestamp;temperature;humidity
66861;SHT31;53770;42.334;23.550;2022-10-16T00:01:35;4.97;79.13
66861;SHT31;53770;42.334;23.550;2022-10-16T00:04:02;4.94;79.13
66861;SHT31;53770;42.334;23.550;2022-10-16T00:06:30;4.95;78.92
66861;SHT31;53770;42.334;23.550;2022-10-16T00:08:58;4.92;78.87
66861;SHT31;53770;42.334;23.550;2022-10-16T00:11:27;4.84;78.96
66861;SHT31;53770;42.334;23.550;2022-10-16T00:13:56;4.87;79.25
66861;SHT31;53770;42.334;23.550;2022-10-16T00:16:23;4.95;79.26
66861;SHT31;53770;42.334;23.550;2022-10-16T00:18:51;5.01;79.02
66861;SHT31;53770;42.334;23.550;2022-10-16T00:21:20;5.07;78.85
66861;SHT31;53770;42.334;23.550;2022-10-16T00:23:50;5.04;78.96
66861;SHT31;53770;42.334;23.550;2022-10-16T00:26:17;5.07;78.75
66861;SHT31;53770;42.334;23.550;2022-10-16T00:28:45;4.97;78.96
66861;SHT31;53770;42.334;23.550;2022-10-16T00:31:12;4.92;79.15
66861;SHT31;53770;42.334;23.550;2022-10-16T00:33:40;4.85;79.26
66861;SHT31;53770;42.334;23.550;2022-10-16T00:36:11;4.85;79.33
66861;SHT31;53770;42.334;23.550;2022-10-16T00:38:38;4.83;79.36
66861;SHT31;53770;42.334;23.550;2022-10-16T00:41:06;4.81;79.37
66861;SHT31;53770;42.334;23.550;2022-10-16T00:43:36;4.81;79.31
66861;SHT31;53770;42.334;23.550;2022-10-16T00:46:05;4.79;79.42
66861;SHT31;53770;42.334;23.550;2022-10-16T00:48:32;4.79;79.51
66861;SHT31;53770;42.334;23.550;2022-10-16T00:50:59;4.76;79.41
66861;SHT31;53770;42.334;23.550;2022-10-16T00:53:27;4.77;79.48
66861;SHT31;53770;42.334;23.550;2022-10-16T00:55:54;4.74;79.33
66861;SHT31;53770;42.334;23.550;2022-10-16T00:58:21;4.73;79.49
66861;SHT31;53770;42.334;23.550;2022-10-16T01:00:48;4.74;79.36
66861;SHT31;53770;42.334;23.550;2022-10-16T01:03:24;4.76;79.32
66861;SHT31;53770;42.334;23.550;2022-10-16T01:06:00;4.79;79.37
66861;SHT31;53770;42.334;23.550;2022-10-16T01:08:34;4.79;79.40
66861;SHT31;53770;42.334;23.550;2022-10-16T01:11:11;4.73;79.49
66861;SHT31;53770;42.334;23.550;2022-10-16T01:13:42;4.76;79.62
66861;SHT31;53770;42.334;23.550;2022-10-16T01:16:13;4.81;79.45
66861;SHT31;53770;42.334;23.550;2022-10-16T01:18:44;4.92;79.09
66861;SHT31;53770;42.334;23.550;2022-10-16T01:21:17;4.94;78.99
66861;SHT31;53770;42.334;23.550;2022-10-16T01:23:51;4.84;78.90
66861;SHT31;53770;42.334;23.550;2022-10-16T01:26:36;4.84;78.96
66861;SHT31;53770;42.334;23.550;2022-10-16T01:29:08;4.85;78.88
66861;SHT31;53770;42.334;23.550;2022-10-16T01:31:38;4.80;78.90
66861;SHT31;53770;42.334;23.550;2022-10-16T01:34:09;4.76;78.84
66861;SHT31;53770;42.334;23.550;2022-10-16T01:36:41;4.61;79.37
66861;SHT31;53770;42.334;23.550;2022-10-16T01:39:10;4.56;80.06
66861;SHT31;53770;42.334;23.550;2022-10-16T01:41:40;4.59;80.26
66861;SHT31;53770;42.334;23.550;2022-10-16T01:44:10;4.64;80.14
66861;SHT31;53770;42.334;23.550;2022-10-16T01:46:41;4.64;80.16
66861;SHT31;53770;42.334;23.550;2022-10-16T01:49:10;4.70;80.06
66861;SHT31;53770;42.334;23.550;2022-10-16T01:51:39;4.67;79.98
66861;SHT31;53770;42.334;23.550;2022-10-16T01:54:08;4.61;80.08
66861;SHT31;53770;42.334;23.550;2022-10-16T01:56:35;4.54;80.50
66861;SHT31;53770;42.334;23.550;2022-10-16T01:59:06;4.50;80.78
66861;SHT31;53770;42.334;23.550;2022-10-16T02:01:36;4.63;80.79
66861;SHT31;53770;42.334;23.550;2022-10-16T02:04:09;4.71;80.42
66861;SHT31;53770;42.334;23.550;2022-10-16T02:06:38;4.74;80.47
66861;SHT31;53770;42.334;23.550;2022-10-16T02:09:04;4.77;80.36
66861;SHT31;53770;42.334;23.550;2022-10-16T02:11:31;4.76;80.40
66861;SHT31;53770;42.334;23.550;2022-10-16T02:14:01;4.80;80.23
66861;SHT31;53770;42.334;23.550;2022-10-16T02:16:35;4.87;79.73
66861;SHT31;53770;42.334;23.550;2022-10-16T02:19:03;4.81;79.40
66861;SHT31;53770;42.334;23.550;2022-10-16T02:21:35;4.84;79.26
66861;SHT31;53770;42.334;23.550;2022-10-16T02:24:08;4.81;79.17
66861;SHT31;53770;42.334;23.550;2022-10-16T02:26:39;4.85;78.93
66861;SHT31;53770;42.334;23.550;2022-10-16T02:29:12;4.80;78.93
66861;SHT31;53770;42.334;23.550;2022-10-16T02:31:45;4.76;78.99
66861;SHT31;53770;42.334;23.550;2022-10-16T02:34:14;4.73;79.16
66861;SHT31;53770;42.334;23.550;2022-10-16T02:36:43;4.69;79.17
66861;SHT31;53770;42.334;23.550;2022-10-16T02:39:11;4.60;79.37
66861;SHT31;53770;42.334;23.550;2022-10-16T02:41:38;4.56;79.50
66861;SHT31;53770;42.334;23.550;2022-10-16T02:44:05;4.45;79.48
66861;SHT31;53770;42.334;23.550;2022-10-16T02:46:31;4.35;79.44
66861;SHT31;53770;42.334;23.550;2022-10-16T02:49:00;4.29;79.78
66861;SHT31;53770;42.334;23.550;2022-10-16T02:51:27;4.28;80.28
66861;SHT31;53770;42.334;23.550;2022-10-16T02:53:53;4.29;80.17
66861;SHT31;53770;42.334;23.550;2022-10-16T02:56:20;4.39;79.90
66861;SHT31;53770;42.334;23.550;2022-10-16T02:58:47;4.43;79.69
66861;SHT31;53770;42.334;23.550;2022-10-16T03:01:14;4.43;79.30
66861;SHT31;53770;42.334;23.550;2022-10-16T03:03:42;4.36;79.28
66861;SHT31;53770;42.334;23.550;2022-10-16T03:06:10;4.26;79.40
66861;SHT31;53770;42.334;23.550;2022-10-16T03:08:37;4.22;79.50
66861;SHT31;53770;42.334;23.550;2022-10-16T03:11:03;4.14;79.60
66861;SHT31;53770;42.334;23.550;2022-10-16T03:13:30;4.02;79.77
66861;SHT31;53770;42.334;23.550;2022-10-16T03:15:57;3.98;79.99
66861;SHT31;53770;42.334;23.550;2022-10-16T03:18:24;3.98;80.36
66861;SHT31;53770;42.334;23.550;2022-10-16T03:20:50;4.06;80.63
66861;SHT31;53770;42.334;23.550;2022-10-16T03:23:19;4.14;80.32
66861;SHT31;53770;42.334;23.550;2022-10-16T03:25:45;4.19;79.89
66861;SHT31;53770;42.334;23.550;2022-10-16T03:28:12;4.15;79.68
66861;SHT31;53770;42.334;23.550;2022-10-16T03:30:39;4.09;79.84
66861;SHT31;53770;42.334;23.550;2022-10-16T03:33:06;4.06;80.07
66861;SHT31;53770;42.334;23.550;2022-10-16T03:35:32;4.01;80.40
66861;SHT31;53770;42.334;23.550;2022-10-16T03:37:59;4.04;80.82
66861;SHT31;53770;42.334;23.550;2022-10-16T03:40:27;4.04;80.83
66861;SHT31;53770;42.334;23.550;2022-10-16T03:42:55;4.15;80.75
66861;SHT31;53770;42.334;23.550;2022-10-16T03:45:23;4.22;80.40
66861;SHT31;53770;42.334;23.550;2022-10-16T03:47:49;4.23;80.23
66861;SHT31;53770;42.334;23.550;2022-10-16T03:50:16;4.35;79.87
66861;SHT31;53770;42.334;23.550;2022-10-16T03:52:43;4.33;79.43
66861;SHT31;53770;42.334;23.550;2022-10-16T03:55:10;4.32;79.44
66861;SHT31;53770;42.334;23.550;2022-10-16T03:57:38;4.28;79.37
66861;SHT31;53770;42.334;23.550;2022-10-16T04:00:05;4.31;79.35
66861;SHT31;53770;42.334;23.550;2022-10-16T04:02:32;4.32;79.32
66861;SHT31;53770;42.334;23.550;2022-10-16T04:04:59;4.26;79.70
66861;SHT31;53770;42.334;23.550;2022-10-16T04:07:26;4.32;79.76
66861;SHT31;53770;42.334;23.550;2022-10-16T04:09:52;4.39;79.53
66861;SHT31;53770;42.334;23.550;2022-10-16T04:12:19;4.35;79.59
66861;SHT31;53770;42.334;23.550;2022-10-16T04:14:48;4.39;79.43
66861;SHT31;53770;42.334;23.550;2022-10-16T04:17:14;4.39;79.21
66861;SHT31;53770;42.334;23.550;2022-10-16T04:19:41;4.38;79.14
66861;SHT31;53770;42.334;23.550;2022-10-16T04:22:08;4.39;79.17
66861;SHT31;53770;42.334;23.550;2022-10-16T04:24:35;4.32;79.17
66861;SHT31;53770;42.334;23.550;2022-10-16T04:27:01;4.33;79.28
66861;SHT31;53770;42.334;23.550;2022-10-16T04:29:28;4.29;79.30
66861;SHT31;53770;42.334;23.550;2022-10-16T04:31:56;4.25;79.49
66861;SHT31;53770;42.334;23.550;2022-10-16T04:34:23;4.15;79.91
66861;SHT31;53770;42.334;23.550;2022-10-16T04:36:50;4.15;79.98
66861;SHT31;53770;42.334;23.550;2022-10-16T04:39:17;4.15;80.08
66861;SHT31;53770;42.334;23.550;2022-10-16T04:41:44;4.19;79.84
66861;SHT31;53770;42.334;23.550;2022-10-16T04:44:11;4.29;79.60
66861;SHT31;53770;42.334;23.550;2022-10-16T04:46:37;4.32;79.01
66861;SHT31;53770;42.334;23.550;2022-10-16T04:49:05;4.33;78.69
66861;SHT31;53770;42.334;23.550;2022-10-16T04:51:32;4.35;78.41
66861;SHT31;53770;42.334;23.550;2022-10-16T04:53:59;4.40;78.08
66861;SHT31;53770;42.334;23.550;2022-10-16T04:56:26;4.38;77.75
66861;SHT31;53770;42.334;23.550;2022-10-16T04:58:52;4.22;78.07
66861;SHT31;53770;42.334;23.550;2022-10-16T05:01:19;4.28;77.23
66861;SHT31;53770;42.334;23.550;2022-10-16T05:03:46;4.28;77.41
66861;SHT31;53770;42.334;23.550;2022-10-16T05:06:14;4.28;76.98
66861;SHT31;53770;42.334;23.550;2022-10-16T05:08:41;4.25;76.82
66861;SHT31;53770;42.334;23.550;2022-10-16T05:11:08;4.23;77.00
66861;SHT31;53770;42.334;23.550;2022-10-16T05:13:34;4.12;77.44
66861;SHT31;53770;42.334;23.550;2022-10-16T05:16:01;4.02;78.30
66861;SHT31;53770;42.334;23.550;2022-10-16T05:18:28;3.99;78.87
66861;SHT31;53770;42.334;23.550;2022-10-16T05:20:54;3.97;79.32
66861;SHT31;53770;42.334;23.550;2022-10-16T05:23:23;4.04;79.40
66861;SHT31;53770;42.334;23.550;2022-10-16T05:25:53;4.01;79.48
66861;SHT31;53770;42.334;23.550;2022-10-16T05:28:21;4.14;79.41
66861;SHT31;53770;42.334;23.550;2022-10-16T05:30:47;4.26;79.27
66861;SHT31;53770;42.334;23.550;2022-10-16T05:33:14;4.39;79.46
66861;SHT31;53770;42.334;23.550;2022-10-16T05:35:41;4.54;79.26
66861;SHT31;53770;42.334;23.550;2022-10-16T05:38:08;4.77;79.05
66861;SHT31;53770;42.334;23.550;2022-10-16T05:40:36;4.98;78.61
66861;SHT31;53770;42.334;23.550;2022-10-16T05:43:03;5.24;78.11
66861;SHT31;53770;42.334;23.550;2022-10-16T05:45:29;5.47;77.49
66861;SHT31;53770;42.334;23.550;2022-10-16T05:47:56;5.71;76.71
66861;SHT31;53770;42.334;23.550;2022-10-16T05:50:23;5.94;76.11
66861;SHT31;53770;42.334;23.550;2022-10-16T05:52:50;6.15;75.20
66861;SHT31;53770;42.334;23.550;2022-10-16T05:55:16;6.38;74.47
66861;SHT31;53770;42.334;23.550;2022-10-16T05:57:45;6.57;73.97
66861;SHT31;53770;42.334;23.550;2022-10-16T06:00:12;6.87;73.13
66861;SHT31;53770;42.334;23.550;2022-10-16T06:02:39;7.12;71.96
66861;SHT31;53770;42.334;23.550;2022-10-16T06:05:06;7.41;71.40
66861;SHT31;53770;42.334;23.550;2022-10-16T06:07:34;7.66;70.95
66861;SHT31;53770;42.334;23.550;2022-10-16T06:10:02;7.87;70.34
66861;SHT31;53770;42.334;23.550;2022-10-16T06:12:29;8.01;69.34
66861;SHT31;53770;42.334;23.550;2022-10-16T06:14:57;7.94;68.15
66861;SHT31;53770;42.334;23.550;2022-10-16T06:17:24;7.95;68.13
66861;SHT31;53770;42.334;23.550;2022-10-16T06:19:50;8.04;67.60
66861;SHT31;53770;42.334;23.550;2022-10-16T06:22:17;8.15;67.33
66861;SHT31;53770;42.334;23.550;2022-10-16T06:24:44;8.25;67.01
66861;SHT31;53770;42.334;23.550;2022-10-16T06:27:11;8.37;66.80
66861;SHT31;53770;42.334;23.550;2022-10-16T06:29:38;8.55;66.39
66861;SHT31;53770;42.334;23.550;2022-10-16T06:32:06;8.90;66.09
66861;SHT31;53770;42.334;23.550;2022-10-16T06:34:33;9.21;64.74
66861;SHT31;53770;42.334;23.550;2022-10-16T06:37:00;9.48;64.60
66861;SHT31;53770;42.334;23.550;2022-10-16T06:39:26;9.81;64.79
66861;SHT31;53770;42.334;23.550;2022-10-16T06:41:53;10.11;63.68
66861;SHT31;53770;42.334;23.550;2022-10-16T06:44:20;10.42;62.81
66861;SHT31;53770;42.334;23.550;2022-10-16T06:46:47;10.69;61.35
66861;SHT31;53770;42.334;23.550;2022-10-16T06:49:15;10.79;60.74
66861;SHT31;53770;42.334;23.550;2022-10-16T06:51:46;10.97;61.29
66861;SHT31;53770;42.334;23.550;2022-10-16T06:54:14;11.19;59.77
66861;SHT31;53770;42.334;23.550;2022-10-16T06:56:41;11.27;59.44
66861;SHT31;53770;42.334;23.550;2022-10-16T06:59:08;11.35;59.81
66861;SHT31;53770;42.334;23.550;2022-10-16T07:01:35;11.44;59.91
66861;SHT31;53770;42.334;23.550;2022-10-16T07:04:02;11.55;59.91
66861;SHT31;53770;42.334;23.550;2022-10-16T07:06:32;11.64;59.85
66861;SHT31;53770;42.334;23.550;2022-10-16T07:09:02;11.78;60.23
66861;SHT31;53770;42.334;23.550;2022-10-16T07:11:29;12.00;60.39
66861;SHT31;53770;42.334;23.550;2022-10-16T07:13:56;12.41;59.85
66861;SHT31;53770;42.334;23.550;2022-10-16T07:16:24;12.78;59.44
66861;SHT31;53770;42.334;23.550;2022-10-16T07:18:51;12.98;58.97
66861;SHT31;53770;42.334;23.550;2022-10-16T07:21:23;13.24;58.83
66861;SHT31;53770;42.334;23.550;2022-10-16T07:23:52;13.50;59.08
66861;SHT31;53770;42.334;23.550;2022-10-16T07:26:19;13.68;58.91
66861;SHT31;53770;42.334;23.550;2022-10-16T07:28:46;14.01;58.36
66861;SHT31;53770;42.334;23.550;2022-10-16T07:31:14;14.43;57.04
66861;SHT31;53770;42.334;23.550;2022-10-16T07:33:42;14.73;55.46
66861;SHT31;53770;42.334;23.550;2022-10-16T07:36:10;14.97;54.38
66861;SHT31;53770;42.334;23.550;2022-10-16T07:38:37;15.05;54.04
66861;SHT31;53770;42.334;23.550;2022-10-16T07:41:07;15.02;53.50
66861;SHT31;53770;42.334;23.550;2022-10-16T07:43:35;15.25;54.06
66861;SHT31;53770;42.334;23.550;2022-10-16T07:46:02;15.46;54.61
66861;SHT31;53770;42.334;23.550;2022-10-16T07:48:31;15.82;52.58
66861;SHT31;53770;42.334;23.550;2022-10-16T07:50:58;16.17;52.09
66861;SHT31;53770;42.334;23.550;2022-10-16T07:53:25;16.51;52.34
66861;SHT31;53770;42.334;23.550;2022-10-16T07:55:57;16.79;51.00
66861;SHT31;53770;42.334;23.550;2022-10-16T07:58:25;17.07;51.55
66861;SHT31;53770;42.334;23.550;2022-10-16T08:00:52;17.18;50.24
66861;SHT31;53770;42.334;23.550;2022-10-16T08:03:18;17.41;50.39
66861;SHT31;53770;42.334;23.550;2022-10-16T08:05:45;17.58;48.09
66861;SHT31;53770;42.334;23.550;2022-10-16T08:08:13;17.54;48.55
66861;SHT31;53770;42.334;23.550;2022-10-16T08:10:40;17.41;49.40
66861;SHT31;53770;42.334;23.550;2022-10-16T08:13:07;17.52;49.14
66861;SHT31;53770;42.334;23.550;2022-10-16T08:15:36;17.72;48.65
66861;SHT31;53770;42.334;23.550;2022-10-16T08:18:04;18.06;47.56
66861;SHT31;53770;42.334;23.550;2022-10-16T08:20:33;18.44;47.75
66861;SHT31;53770;42.334;23.550;2022-10-16T08:23:00;18.67;45.88
66861;SHT31;53770;42.334;23.550;2022-10-16T08:25:27;18.94;46.12
66861;SHT31;53770;42.334;23.550;2022-10-16T08:27:54;19.30;45.92
66861;SHT31;53770;42.334;23.550;2022-10-16T08:30:22;19.55;44.55
66861;SHT31;53770;42.334;23.550;2022-10-16T08:32:51;19.78;43.27
66861;SHT31;53770;42.334;23.550;2022-10-16T08:35:17;20.02;43.69
66861;SHT31;53770;42.334;23.550;2022-10-16T08:37:44;20.13;41.95
66861;SHT31;53770;42.334;23.550;2022-10-16T08:40:18;20.13;41.94
66861;SHT31;53770;42.334;23.550;2022-10-16T08:43:04;20.56;41.68
66861;SHT31;53770;42.334;23.550;2022-10-16T08:45:42;21.03;40.11
66861;SHT31;53770;42.334;23.550;2022-10-16T08:48:20;21.38;39.51
66861;SHT31;53770;42.334;23.550;2022-10-16T08:50:49;21.60;38.20
66861;SHT31;53770;42.334;23.550;2022-10-16T08:53:21;21.61;37.13
66861;SHT31;53770;42.334;23.550;2022-10-16T08:55:51;21.63;37.65
66861;SHT31;53770;42.334;23.550;2022-10-16T08:58:19;21.90;38.33
66861;SHT31;53770;42.334;23.550;2022-10-16T09:00:48;22.18;36.51
66861;SHT31;53770;42.334;23.550;2022-10-16T09:03:29;22.42;36.51
66861;SHT31;53770;42.334;23.550;2022-10-16T09:06:15;22.55;36.83
66861;SHT31;53770;42.334;23.550;2022-10-16T09:08:54;23.03;34.67
66861;SHT31;53770;42.334;23.550;2022-10-16T09:11:35;23.35;33.90
66861;SHT31;53770;42.334;23.550;2022-10-16T09:14:15;23.75;33.54
66861;SHT31;53770;42.334;23.550;2022-10-16T09:16:47;24.00;33.50
66861;SHT31;53770;42.334;23.550;2022-10-16T09:19:22;24.41;31.25
66861;SHT31;53770;42.334;23.550;2022-10-16T09:21:49;24.35;30.86
66861;SHT31;53770;42.334;23.550;2022-10-16T09:24:20;24.71;31.96
66861;SHT31;53770;42.334;23.550;2022-10-16T09:26:47;24.93;30.18
66861;SHT31;53770;42.334;23.550;2022-10-16T09:29:15;24.35;31.20
66861;SHT31;53770;42.334;23.550;2022-10-16T09:31:42;24.79;31.72
66861;SHT31;53770;42.334;23.550;2022-10-16T09:34:15;25.27;31.10
66861;SHT31;53770;42.334;23.550;2022-10-16T09:36:46;25.61;29.88
66861;SHT31;53770;42.334;23.550;2022-10-16T09:39:12;26.08;29.13
66861;SHT31;53770;42.334;23.550;2022-10-16T09:41:42;26.77;28.72
66861;SHT31;53770;42.334;23.550;2022-10-16T09:44:19;26.84;27.80
66861;SHT31;53770;42.334;23.550;2022-10-16T09:46:47;27.26;26.67
66861;SHT31;53770;42.334;23.550;2022-10-16T09:49:22;27.97;27.01
66861;SHT31;53770;42.334;23.550;2022-10-16T09:51:51;28.84;24.88
66861;SHT31;53770;42.334;23.550;2022-10-16T09:54:29;29.58;24.74
66861;SHT31;53770;42.334;23.550;2022-10-16T09:57:04;30.28;23.37
66861;SHT31;53770;42.334;23.550;2022-10-16T09:59:32;31.00;23.03
66861;SHT31;53770;42.334;23.550;2022-10-16T10:02:03;31.89;22.03
66861;SHT31;53770;42.334;23.550;2022-10-16T10:04:40;31.47;21.40
66861;SHT31;53770;42.334;23.550;2022-10-16T10:07:17;31.44;21.13
66861;SHT31;53770;42.334;23.550;2022-10-16T10:09:45;31.80;20.88
66861;SHT31;53770;42.334;23.550;2022-10-16T10:12:21;33.08;20.43
66861;SHT31;53770;42.334;23.550;2022-10-16T10:14:49;33.96;18.91
66861;SHT31;53770;42.334;23.550;2022-10-16T10:17:18;34.49;18.71
66861;SHT31;53770;42.334;23.550;2022-10-16T10:19:48;35.53;17.29
66861;SHT31;53770;42.334;23.550;2022-10-16T10:22:40;36.46;16.55
66861;SHT31;53770;42.334;23.550;2022-10-16T10:28:27;37.32;14.72
66861;SHT31;53770;42.334;23.550;2022-10-16T10:30:59;38.11;14.17
66861;SHT31;53770;42.334;23.550;2022-10-16T10:33:33;37.30;12.49
66861;SHT31;53770;42.334;23.550;2022-10-16T10:36:12;37.01;13.67
66861;SHT31;53770;42.334;23.550;2022-10-16T10:38:47;37.35;13.38
66861;SHT31;53770;42.334;23.550;2022-10-16T10:41:40;38.20;13.20
66861;SHT31;53770;42.334;23.550;2022-10-16T10:44:15;38.82;12.73
66861;SHT31;53770;42.334;23.550;2022-10-16T10:46:48;38.01;12.57
66861;SHT31;53770;42.334;23.550;2022-10-16T10:49:26;38.08;12.70
66861;SHT31;53770;42.334;23.550;2022-10-16T10:52:05;38.70;11.59
66861;SHT31;53770;42.334;23.550;2022-10-16T10:54:41;39.47;11.92
66861;SHT31;53770;42.334;23.550;2022-10-16T10:57:21;39.90;11.59
66861;SHT31;53770;42.334;23.550;2022-10-16T11:00:03;40.54;11.49
66861;SHT31;53770;42.334;23.550;2022-10-16T11:02:37;40.64;11.53
66861;SHT31;53770;42.334;23.550;2022-10-16T11:05:29;40.46;11.52
66861;SHT31;53770;42.334;23.550;2022-10-16T11:08:00;39.78;11.57
66861;SHT31;53770;42.334;23.550;2022-10-16T11:10:33;40.23;11.59
66861;SHT31;53770;42.334;23.550;2022-10-16T11:13:10;40.54;11.51
66861;SHT31;53770;42.334;23.550;2022-10-16T11:15:42;40.78;11.82
66861;SHT31;53770;42.334;23.550;2022-10-16T11:18:16;41.39;11.42
66861;SHT31;53770;42.334;23.550;2022-10-16T11:20:49;41.53;11.49
66861;SHT31;53770;42.334;23.550;2022-10-16T11:23:22;41.69;11.68
66861;SHT31;53770;42.334;23.550;2022-10-16T11:25:56;41.73;11.68
66861;SHT31;53770;42.334;23.550;2022-10-16T11:28:27;41.91;11.45
66861;SHT31;53770;42.334;23.550;2022-10-16T11:31:00;41.63;11.82
66861;SHT31;53770;42.334;23.550;2022-10-16T11:33:32;41.91;11.44
66861;SHT31;53770;42.334;23.550;2022-10-16T11:36:10;41.87;11.45
66861;SHT31;53770;42.334;23.550;2022-10-16T11:38:45;41.72;12.06
66861;SHT31;53770;42.334;23.550;2022-10-16T11:41:20;41.57;12.34
66861;SHT31;53770;42.334;23.550;2022-10-16T11:43:53;41.53;12.41
66861;SHT31;53770;42.334;23.550;2022-10-16T11:46:23;41.60;12.10
66861;SHT31;53770;42.334;23.550;2022-10-16T11:48:57;41.40;12.34
66861;SHT31;53770;42.334;23.550;2022-10-16T11:51:33;41.77;12.13
66861;SHT31;53770;42.334;23.550;2022-10-16T11:54:08;42.21;11.82
66861;SHT31;53770;42.334;23.550;2022-10-16T11:56:40;42.36;11.54
66861;SHT31;53770;42.334;23.550;2022-10-16T11:59:14;42.15;11.97
66861;SHT31;53770;42.334;23.550;2022-10-16T12:01:46;42.14;11.59
66861;SHT31;53770;42.334;23.550;2022-10-16T12:04:21;41.91;11.61
66861;SHT31;53770;42.334;23.550;2022-10-16T12:06:52;41.98;11.73
66861;SHT31;53770;42.334;23.550;2022-10-16T12:09:25;41.95;12.00
66861;SHT31;53770;42.334;23.550;2022-10-16T12:11:54;42.07;12.07
66861;SHT31;53770;42.334;23.550;2022-10-16T12:14:35;42.12;11.82
66861;SHT31;53770;42.334;23.550;2022-10-16T12:17:21;42.49;11.56
66861;SHT31;53770;42.334;23.550;2022-10-16T12:19:57;42.18;11.63
66861;SHT31;53770;42.334;23.550;2022-10-16T12:22:28;41.54;12.19
66861;SHT31;53770;42.334;23.550;2022-10-16T12:24:55;41.73;12.11
66861;SHT31;53770;42.334;23.550;2022-10-16T12:27:28;41.76;11.75
66861;SHT31;53770;42.334;23.550;2022-10-16T12:29:57;42.01;12.02
66861;SHT31;53770;42.334;23.550;2022-10-16T12:32:30;42.33;11.98
66861;SHT31;53770;42.334;23.550;2022-10-16T12:34:58;42.66;12.28
66861;SHT31;53770;42.334;23.550;2022-10-16T12:37:27;42.42;12.06
66861;SHT31;53770;42.334;23.550;2022-10-16T12:39:56;42.07;11.73
66861;SHT31;53770;42.334;23.550;2022-10-16T12:42:33;41.72;11.92
66861;SHT31;53770;42.334;23.550;2022-10-16T12:45:01;41.73;12.13
66861;SHT31;53770;42.334;23.550;2022-10-16T12:47:38;41.74;11.91
66861;SHT31;53770;42.334;23.550;2022-10-16T12:50:28;41.23;12.35
66861;SHT31;53770;42.334;23.550;2022-10-16T12:52:57;41.15;12.65
66861;SHT31;53770;42.334;23.550;2022-10-16T12:55:24;41.11;12.87
66861;SHT31;53770;42.334;23.550;2022-10-16T12:58:18;41.23;12.64
66861;SHT31;53770;42.334;23.550;2022-10-16T13:00:50;41.16;12.77
66861;SHT31;53770;42.334;23.550;2022-10-16T13:03:51;41.06;12.75
66861;SHT31;53770;42.334;23.550;2022-10-16T13:06:25;40.98;12.66
66861;SHT31;53770;42.334;23.550;2022-10-16T13:09:04;40.94;12.90
66861;SHT31;53770;42.334;23.550;2022-10-16T13:11:48;40.80;12.88
66861;SHT31;53770;42.334;23.550;2022-10-16T13:14:42;40.88;12.86
66861;SHT31;53770;42.334;23.550;2022-10-16T13:17:20;40.96;12.80
66861;SHT31;53770;42.334;23.550;2022-10-16T13:19:57;40.35;12.59
66861;SHT31;53770;42.334;23.550;2022-10-16T13:22:30;39.96;12.97
66861;SHT31;53770;42.334;23.550;2022-10-16T13:25:13;39.02;13.30
66861;SHT31;53770;42.334;23.550;2022-10-16T13:27:50;38.69;13.80
66861;SHT31;53770;42.334;23.550;2022-10-16T13:30:23;38.78;13.70
66861;SHT31;53770;42.334;23.550;2022-10-16T13:32:56;37.78;13.90
66861;SHT31;53770;42.334;23.550;2022-10-16T13:35:26;37.30;14.57
66861;SHT31;53770;42.334;23.550;2022-10-16T13:38:04;36.87;14.96
66861;SHT31;53770;42.334;23.550;2022-10-16T13:40:31;36.44;14.96
66861;SHT31;53770;42.334;23.550;2022-10-16T13:43:00;36.50;14.98
66861;SHT31;53770;42.334;23.550;2022-10-16T13:45:28;36.96;14.94
66861;SHT31;53770;42.334;23.550;2022-10-16T13:48:02;37.11;14.71
66861;SHT31;53770;42.334;23.550;2022-10-16T13:50:29;36.96;15.27
66861;SHT31;53770;42.334;23.550;2022-10-16T13:53:04;37.03;15.29
66861;SHT31;53770;42.334;23.550;2022-10-16T13:55:31;36.66;15.24
66861;SHT31;53770;42.334;23.550;2022-10-16T13:58:05;35.88;15.71
66861;SHT31;53770;42.334;23.550;2022-10-16T14:00:33;35.30;16.05
66861;SHT31;53770;42.334;23.550;2022-10-16T14:03:04;35.00;16.41
66861;SHT31;53770;42.334;23.550;2022-10-16T14:05:32;34.13;17.03
66861;SHT31;53770;42.334;23.550;2022-10-16T14:07:59;33.78;17.13
66861;SHT31;53770;42.334;23.550;2022-10-16T14:10:27;33.18;17.56
66861;SHT31;53770;42.334;23.550;2022-10-16T14:12:58;33.32;17.17
66861;SHT31;53770;42.334;23.550;2022-10-16T14:15:25;33.26;17.31
66861;SHT31;53770;42.334;23.550;2022-10-16T14:17:53;33.02;17.87
66861;SHT31;53770;42.334;23.550;2022-10-16T14:20:25;32.90;18.15
66861;SHT31;53770;42.334;23.550;2022-10-16T14:22:59;32.30;18.71
66861;SHT31;53770;42.334;23.550;2022-10-16T14:25:28;31.67;19.45
66861;SHT31;53770;42.334;23.550;2022-10-16T14:28:00;31.22;19.46
66861;SHT31;53770;42.334;23.550;2022-10-16T14:30:28;31.12;19.79
66861;SHT31;53770;42.334;23.550;2022-10-16T14:32:58;31.31;19.73
66861;SHT31;53770;42.334;23.550;2022-10-16T14:35:29;31.17;19.93
66861;SHT31;53770;42.334;23.550;2022-10-16T14:37:57;30.64;20.28
66861;SHT31;53770;42.334;23.550;2022-10-16T14:40:26;29.58;21.14
66861;SHT31;53770;42.334;23.550;2022-10-16T14:42:54;28.62;22.15
66861;SHT31;53770;42.334;23.550;2022-10-16T14:45:22;26.95;23.70
66861;SHT31;53770;42.334;23.550;2022-10-16T14:47:52;25.78;25.04
66861;SHT31;53770;42.334;23.550;2022-10-16T14:50:21;25.91;25.06
66861;SHT31;53770;42.334;23.550;2022-10-16T14:52:48;26.46;24.54
66861;SHT31;53770;42.334;23.550;2022-10-16T14:55:16;26.85;24.02
66861;SHT31;53770;42.334;23.550;2022-10-16T14:57:43;26.88;23.83
66861;SHT31;53770;42.334;23.550;2022-10-16T15:00:16;26.70;23.69
66861;SHT31;53770;42.334;23.550;2022-10-16T15:02:43;26.29;24.01
66861;SHT31;53770;42.334;23.550;2022-10-16T15:05:14;25.84;24.34
66861;SHT31;53770;42.334;23.550;2022-10-16T15:07:42;25.43;24.71
66861;SHT31;53770;42.334;23.550;2022-10-16T15:10:09;25.22;24.91
66861;SHT31;53770;42.334;23.550;2022-10-16T15:12:36;24.89;24.64
66861;SHT31;53770;42.334;23.550;2022-10-16T15:15:25;24.69;24.90
66861;SHT31;53770;42.334;23.550;2022-10-16T15:17:55;24.04;25.41
66861;SHT31;53770;42.334;23.550;2022-10-16T15:20:22;23.34;26.18
66861;SHT31;53770;42.334;23.550;2022-10-16T15:22:51;22.48;27.28
66861;SHT31;53770;42.334;23.550;2022-10-16T15:25:34;21.49;29.13
66861;SHT31;53770;42.334;23.550;2022-10-16T15:28:03;20.30;30.19
66861;SHT31;53770;42.334;23.550;2022-10-16T15:30:30;19.58;31.92
66861;SHT31;53770;42.334;23.550;2022-10-16T15:32:57;18.94;33.48
66861;SHT31;53770;42.334;23.550;2022-10-16T15:35:24;18.41;34.40
66861;SHT31;53770;42.334;23.550;2022-10-16T15:37:52;17.93;35.24
66861;SHT31;53770;42.334;23.550;2022-10-16T15:40:20;17.56;35.59
66861;SHT31;53770;42.334;23.550;2022-10-16T15:42:48;17.25;36.21
66861;SHT31;53770;42.334;23.550;2022-10-16T15:45:15;16.90;37.46